Terminal Aerodrome Forecast
Issued by NWS

Home | Current Version | Previous Version | Text Only | Print | Product List | Glossary On
Versions: 1 2 3 4 5 6 7 8 9 10 11 12 13 14 15 16 17 18 19 20
767
FTUS46 KPDT 121510 AAA
TAFYKM
TAF AMD
KYKM 121510Z 1215/1312 29003KT 4SM BR BKN008 OVC014
      TEMPO 1215/1218 6SM BR SCT008 OVC017
     FM121800 27007KT P6SM -SHRA OVC050
     FM130000 27003KT P6SM FEW050 SCT100
     FM130600 33002KT P6SM SCT050=

USA.gov is the U.S. government's official web portal to all federal, state and local government web resources and services.